QFA43G YSSY-YPPH
Flight info
| Callsign | QFA43G |
|---|---|
| Flight time | N/A |
| Altitude | 41000 |
| Route | KADOM H44 AD Q33 ESP Q158 PH |
| Aircraft | A388/J-SADE2E3FGHIJ3J4J5M1RWXY/LB1D1 |
Departure
| Time | 2026-05-01 15:06 |
|---|---|
| Airport | Sydney Kingsford Smith International Airport (YSSY) |
Arrival
| Time | N/A |
|---|---|
| Airport | Perth International Airport (YPPH) |
| Time | Latitude | Longitude | Altitude | Speed | Heading |
|---|---|---|---|---|---|
| 2026-05-01 14:46 | -33.94497 | 151.17068 | 35 ft | 0 kts | 164° |
| 2026-05-01 14:53 | -33.94494 | 151.17067 | 35 ft | 3 kts | 164° |
| 2026-05-01 14:53 | -33.94469 | 151.17059 | 35 ft | 4 kts | 164° |
| 2026-05-01 14:54 | -33.94443 | 151.17050 | 35 ft | 4 kts | 164° |
| 2026-05-01 14:54 | -33.94418 | 151.17042 | 35 ft | 2 kts | 164° |
| 2026-05-01 14:54 | -33.94399 | 151.17030 | 34 ft | 3 kts | 108° |
| 2026-05-01 14:54 | -33.94400 | 151.17001 | 32 ft | 0 kts | 74° |
| 2026-05-01 14:55 | -33.94404 | 151.16984 | 31 ft | 3 kts | 74° |
| 2026-05-01 15:00 | -33.94401 | 151.16997 | 33 ft | 3 kts | 74° |
| 2026-05-01 15:01 | -33.94382 | 151.17075 | 35 ft | 19 kts | 74° |
| 2026-05-01 15:01 | -33.94347 | 151.17239 | 35 ft | 19 kts | 88° |
| 2026-05-01 15:01 | -33.94406 | 151.17377 | 35 ft | 15 kts | 155° |
| 2026-05-01 15:01 | -33.94534 | 151.17374 | 35 ft | 30 kts | 173° |
| 2026-05-01 15:02 | -33.94772 | 151.17431 | 35 ft | 32 kts | 167° |
| 2026-05-01 15:02 | -33.94915 | 151.17470 | 34 ft | 32 kts | 167° |
| 2026-05-01 15:02 | -33.95202 | 151.17549 | 34 ft | 31 kts | 167° |
| 2026-05-01 15:02 | -33.95415 | 151.17605 | 35 ft | 31 kts | 167° |
| 2026-05-01 15:03 | -33.95622 | 151.17652 | 35 ft | 31 kts | 169° |
| 2026-05-01 15:03 | -33.95828 | 151.17703 | 35 ft | 31 kts | 168° |
| 2026-05-01 15:03 | -33.96037 | 151.17757 | 35 ft | 31 kts | 168° |
| 2026-05-01 15:03 | -33.96244 | 151.17814 | 35 ft | 31 kts | 167° |
| 2026-05-01 15:04 | -33.96425 | 151.17890 | 35 ft | 22 kts | 122° |
| 2026-05-01 15:04 | -33.96406 | 151.18025 | 35 ft | 14 kts | 40° |
| 2026-05-01 15:04 | -33.96326 | 151.18037 | 35 ft | 0 kts | 350° |
| 2026-05-01 15:05 | -33.96325 | 151.18036 | 35 ft | 1 kts | 350° |
| 2026-05-01 15:05 | -33.96258 | 151.18021 | 34 ft | 45 kts | 347° |
| 2026-05-01 15:05 | -33.95553 | 151.17858 | 35 ft | 152 kts | 355° |
| 2026-05-01 15:05 | -33.94387 | 151.17578 | 467 ft | 183 kts | 346° |
| 2026-05-01 15:06 | -33.93056 | 151.17208 | 940 ft | 209 kts | 348° |
| 2026-05-01 15:06 | -33.91616 | 151.16691 | 1665 ft | 232 kts | 335° |
| 2026-05-01 15:06 | -33.90324 | 151.15412 | 2558 ft | 250 kts | 316° |
| 2026-05-01 15:06 | -33.89092 | 151.13860 | 3668 ft | 257 kts | 317° |
| 2026-05-01 15:07 | -33.87831 | 151.12297 | 4783 ft | 262 kts | 317° |
| 2026-05-01 15:07 | -33.86562 | 151.10731 | 5942 ft | 266 kts | 318° |
| 2026-05-01 15:07 | -33.85253 | 151.09116 | 7055 ft | 271 kts | 318° |
| 2026-05-01 15:07 | -33.83944 | 151.07502 | 8149 ft | 274 kts | 317° |
| 2026-05-01 15:08 | -33.82603 | 151.05848 | 9283 ft | 277 kts | 317° |
| 2026-05-01 15:08 | -33.81240 | 151.04164 | 10391 ft | 282 kts | 316° |
| 2026-05-01 15:08 | -33.79835 | 151.02432 | 11044 ft | 301 kts | 316° |
| 2026-05-01 15:08 | -33.78308 | 151.00550 | 11425 ft | 325 kts | 315° |
| 2026-05-01 15:09 | -33.76677 | 150.98538 | 11950 ft | 341 kts | 315° |
| 2026-05-01 15:09 | -33.75028 | 150.96502 | 12801 ft | 346 kts | 315° |
| 2026-05-01 15:09 | -33.73332 | 150.94410 | 13630 ft | 353 kts | 315° |
| 2026-05-01 15:09 | -33.71616 | 150.92296 | 14645 ft | 354 kts | 314° |
| 2026-05-01 15:10 | -33.69883 | 150.90161 | 15427 ft | 359 kts | 314° |
| 2026-05-01 15:10 | -33.66337 | 150.85797 | 16951 ft | 368 kts | 314° |
| 2026-05-01 15:10 | -33.64557 | 150.83610 | 17694 ft | 372 kts | 314° |
| 2026-05-01 15:11 | -33.62725 | 150.81360 | 18404 ft | 375 kts | 313° |
| 2026-05-01 15:11 | -33.60342 | 150.75864 | 19725 ft | 383 kts | 279° |
| 2026-05-01 15:11 | -33.60283 | 150.72663 | 20366 ft | 387 kts | 263° |
| 2026-05-01 15:12 | -33.60760 | 150.69458 | 20972 ft | 391 kts | 258° |
| 2026-05-01 15:12 | -33.61865 | 150.63030 | 22152 ft | 398 kts | 259° |
| 2026-05-01 15:12 | -33.62399 | 150.59734 | 22706 ft | 403 kts | 259° |
| 2026-05-01 15:13 | -33.63927 | 150.49711 | 24364 ft | 414 kts | 260° |
| 2026-05-01 15:14 | -33.64956 | 150.42830 | 25422 ft | 422 kts | 260° |
| 2026-05-01 15:14 | -33.65477 | 150.39345 | 25944 ft | 427 kts | 260° |
| 2026-05-01 15:14 | -33.66530 | 150.32273 | 27097 ft | 435 kts | 260° |
| 2026-05-01 15:15 | -33.67604 | 150.25035 | 28303 ft | 442 kts | 260° |
| 2026-05-01 15:15 | -33.68682 | 150.17736 | 29504 ft | 449 kts | 260° |
| 2026-05-01 15:16 | -33.69782 | 150.10264 | 30581 ft | 459 kts | 260° |
| 2026-05-01 15:16 | -33.70898 | 150.02643 | 31609 ft | 469 kts | 260° |
| 2026-05-01 15:17 | -33.72025 | 149.94909 | 32690 ft | 476 kts | 260° |
| 2026-05-01 15:18 | -33.73754 | 149.82987 | 34189 ft | 488 kts | 260° |
| 2026-05-01 15:18 | -33.74334 | 149.78961 | 34673 ft | 492 kts | 260° |
| 2026-05-01 15:19 | -33.76073 | 149.66851 | 36572 ft | 490 kts | 260° |
| 2026-05-01 15:19 | -33.77172 | 149.58721 | 37700 ft | 490 kts | 264° |
| 2026-05-01 15:19 | -33.77484 | 149.54689 | 38265 ft | 489 kts | 264° |
| 2026-05-01 15:20 | -33.78151 | 149.46515 | 39289 ft | 490 kts | 264° |
| 2026-05-01 15:20 | -33.78484 | 149.42472 | 39806 ft | 490 kts | 264° |
| 2026-05-01 15:20 | -33.78819 | 149.38380 | 40316 ft | 489 kts | 264° |
| 2026-05-01 15:21 | -33.79147 | 149.34325 | 40790 ft | 489 kts | 264° |
| 2026-05-01 15:21 | -33.79478 | 149.30210 | 41000 ft | 496 kts | 264° |
| 2026-05-01 15:21 | -33.79809 | 149.26075 | 41003 ft | 492 kts | 264° |
| 2026-05-01 15:22 | -33.80778 | 149.13849 | 40999 ft | 491 kts | 264° |
| 2026-05-01 15:22 | -33.81416 | 149.05710 | 40998 ft | 491 kts | 264° |
| 2026-05-01 15:23 | -33.82054 | 148.97509 | 41003 ft | 491 kts | 264° |
| 2026-05-01 15:23 | -33.82682 | 148.89365 | 40999 ft | 489 kts | 265° |
| 2026-05-01 15:24 | -33.83307 | 148.81196 | 40994 ft | 488 kts | 265° |
| 2026-05-01 15:24 | -33.83920 | 148.73104 | 40988 ft | 486 kts | 265° |
| 2026-05-01 15:25 | -33.84596 | 148.64990 | 40982 ft | 485 kts | 261° |
| 2026-05-01 15:25 | -33.85886 | 148.57069 | 40975 ft | 484 kts | 258° |
| 2026-05-01 15:26 | -33.87211 | 148.49120 | 40958 ft | 484 kts | 259° |
| 2026-05-01 15:26 | -33.88527 | 148.41170 | 40958 ft | 484 kts | 259° |
| 2026-05-01 15:27 | -33.89842 | 148.33204 | 40959 ft | 484 kts | 259° |
| 2026-05-01 15:28 | -33.91804 | 148.21254 | 40966 ft | 484 kts | 259° |
| 2026-05-01 15:28 | -33.93105 | 148.13290 | 40972 ft | 484 kts | 259° |
| 2026-05-01 15:29 | -33.95044 | 148.01357 | 40970 ft | 485 kts | 259° |
| 2026-05-01 15:30 | -33.97612 | 147.85428 | 40982 ft | 485 kts | 259° |
| 2026-05-01 15:31 | -34.01441 | 147.61430 | 40989 ft | 486 kts | 259° |
| 2026-05-01 15:32 | -34.03969 | 147.45406 | 40995 ft | 487 kts | 259° |
| 2026-05-01 15:34 | -34.07720 | 147.21366 | 40998 ft | 487 kts | 259° |